METAR Data
IDs: Format: Raw Decoded Include TAF

Data at: 1209 UTC 07 Jul 2020

KGRD 071203Z AUTO 07005KT 5SM -RA BR OVC005 22/22 A3003 RMK AO2 CIG 004V009 P0000 T02220222
KGRD 071156Z AUTO 06005KT 2 1/2SM -RA BR OVC005 22/22 A3003 RMK AO2 VIS 1 1/2V4 CIG 003V007 SLP163 P0002 60017 70076 T02220222 10222 20217 53004
KGRD 071148Z AUTO 07005KT 1 3/4SM -RA BR OVC005 22/22 A3003 RMK AO2 CIG 003V008 P0002 T02220222
KGRD 071056Z AUTO 08004KT 7SM -RA OVC005 22/22 A3003 RMK AO2 CIG 003V009 SLP161 P0001 T02220222
KGRD 070956Z AUTO 07003KT 6SM -RA BR OVC005 22/22 A3002 RMK AO2 CIG 004V008 SLP160 P0006 T02220222
KGRD 070925Z AUTO 07004KT 4SM -RA BR BKN005 OVC010 22/22 A3002 RMK AO2 P0006 T02220222
KGRD 070903Z AUTO 08006KT 2SM RA BR OVC005 22/22 A3002 RMK AO2 VIS 1 1/4V4 P0002 T02220222
KGRD 070856Z AUTO 07004KT 3SM -RA BR OVC005 22/22 A3002 RMK AO2 RAB49 SLP968 P0003 60008 T02220222 56013
KGRD 070829Z AUTO 08005KT 8SM OVC004 22/22 A3002 RMK AO2 T02220222
KGRD 070809Z AUTO VRB04KT 7SM OVC005 22/22 A3002 RMK AO2 CIG 003V009 T02220222
KGRD 070756Z AUTO 07004KT 8SM OVC004 22/22 A3002 RMK AO2 RAE27 CIG 003V009 SLP969 P0000 T02220222
KGRD 070707Z AUTO 05005KT 6SM -RA BR OVC004 22/22 A3003 RMK AO2 P0000 T02170217
KGRD 070656Z AUTO 05006KT 2 1/2SM RA BR OVC004 22/22 A3003 RMK AO2 RAB0557E25B51 SLP163 P0005 T02170217
KGRD 070611Z AUTO 04004KT 3SM -RA BR BKN004 BKN009 OVC022 22/22 A3005 RMK AO2 RAB0557 P0002 T02170217
KGRD 070558Z AUTO 06004KT 6SM -RA BR BKN005 BKN021 OVC065 22/22 A3006 RMK AO2 RAB57 P0000 T02170217
KGRD 070556Z AUTO 05003KT 7SM SCT005 BKN050 OVC065 22/22 A3006 RMK AO2 RAB37E46 SLP170 P0000 60002 T02170217 10217 20217 58002
KGRD 070549Z AUTO 00000KT 7SM FEW005 BKN050 OVC080 22/22 A3006 RMK AO2 RAB37E46 P0000 T02170217
KGRD 070456Z AUTO 07003KT 10SM FEW028 BKN043 OVC049 22/22 A3007 RMK AO2 RAE15 SLP976 P0000 T02170217 402830189
KGRD 070410Z AUTO 07004KT 7SM -RA FEW003 BKN031 OVC045 22/22 A3006 RMK AO2 P0000 T02170217
KGRD 070403Z AUTO 00000KT 9SM -RA SCT003 BKN023 OVC031 22/22 A3006 RMK AO2 P0000 T02170217
KGRD 070356Z AUTO 06004KT 9SM -RA BKN003 BKN025 OVC033 22/22 A3006 RMK AO2 RAB36E45B54 SLP975 P0001 T02170217
KGRD 070349Z AUTO 05004KT 9SM BKN003 BKN025 OVC033 22/22 A3006 RMK AO2 RAB36E45 P0000 T02170217
KGRD 070342Z AUTO 05004KT 9SM -RA SCT003 BKN025 OVC046 22/22 A3006 RMK AO2 RAB36 P0000 T02170217
KGRD 070303Z AUTO 03004KT 10SM SCT003 OVC050 22/22 A3006 RMK AO2 T02170217
KGRD 070256Z AUTO 03005KT 10SM OVC048 22/22 A3006 RMK AO2 RAE37 SLP173 P0000 60001 T02170217 58002
KGRD 070233Z AUTO 04005KT 10SM -RA SCT011 BKN038 OVC047 22/22 A3007 RMK AO2 P0000 T02170217
KGRD 070220Z AUTO 04005KT 10SM -RA BKN010 BKN037 OVC047 22/22 A3007 RMK AO2 P0000 T02170217
KGRD 070213Z AUTO 05004KT 9SM -RA BKN009 BKN037 OVC047 22/22 A3007 RMK AO2 P0000 T02170217
KGRD 070156Z AUTO 04003KT 7SM -RA FEW002 BKN011 OVC050 22/22 A3007 RMK AO2 RAE05B13 SLP177 P0001 T02170217
KGRD 070142Z AUTO 02004KT 7SM -RA SCT002 BKN011 22/22 A3007 RMK AO2 RAE05B13 P0001 T02170217
KGRD 070110Z AUTO 00000KT 10SM SCT003 22/22 A3006 RMK AO2 RAE05 P0000 T02170217
KGRD 070056Z AUTO 00000KT 10SM -RA FEW110 22/22 A3006 RMK AO2 RAE06B37 SLP174 P0000 T02170217
KGRD 062356Z AUTO 16003KT 9SM -RA SCT095 BKN110 22/22 A3007 RMK AO2 SLP176 P0007 60057 T02170217 10283 20217 50007
KGRD 062316Z AUTO 19005KT 3SM RA BR SCT012 BKN090 OVC120 22/22 A3008 RMK AO2 LTG DSNT NW P0004 T02220222
KGRD 062307Z AUTO 17008KT 3SM RA BR SCT009 BKN023 OVC110 22/22 A3008 RMK AO2 P0002 T02220222
KGRD 062256Z AUTO 19006KT 2 1/2SM RA BR SCT006 BKN010 OVC040 22/22 A3008 RMK AO2 LTG DSNT W AND NW RAB30 TSB08E23 SLP180 P0025 T02220222
KGRD 062246Z AUTO 16006KT 1 1/2SM +RA BR FEW006 BKN010 OVC028 22/22 A3008 RMK AO2 LTG DSNT W AND NW RAB30 TSB08E23 P0022 T02220222
KGRD 062232Z AUTO 15007KT 1 3/4SM +RA BR SCT008 BKN015 OVC048 23/23 A3008 RMK AO2 LTG DSNT W RAB30 TSB08E23 P0010 T02280228
KGRD 062229Z AUTO 17006KT 5SM BR SCT008 BKN016 BKN028 23/23 A3008 RMK AO2 LTG DSNT W TSB08E23 T02280228
KGRD 062223Z AUTO 07005KT 10SM VCTS SCT016 BKN028 BKN048 23/23 A3007 RMK AO2 TSB08E23 T02280228
KGRD 062214Z AUTO 06004KT 10SM TS SCT028 SCT048 BKN110 23/23 A3006 RMK AO2 LTG DSNT SE AND S TSB08 T02280228
KGRD 062206Z AUTO 05007KT 10SM VCTS FEW046 FEW110 23/23 A3006 RMK AO2 LTG DSNT SE AND S AND NW T02330228
KGRD 062156Z AUTO 05006KT 10SM FEW036 FEW050 23/23 A3004 RMK AO2 LTG DSNT W-N SLP167 T02330228
KGRD 062132Z AUTO 07006KT 10SM SCT023 BKN038 24/23 A3005 RMK AO2 LTG DSNT W-NE T02390228
KGRD 062117Z AUTO VRB05KT 10SM VCTS FEW070 SCT120 25/24 A3004 RMK AO2 LTG DSNT ALQDS T02500244
KGRD 062110Z AUTO 07004KT 10SM SCT070 BKN120 25/24 A3004 RMK AO2 LTG DSNT NE AND NW T02500239
KGRD 062056Z AUTO VRB05KT 10SM VCTS SCT065 BKN080 BKN110 25/24 A3005 RMK AO2 LTG DSNT N AND E AND S RAE35 SLP168 P0012 60025 T02500239 55001
KGRD 062041Z AUTO VRB03KT 10SM VCTS SCT070 BKN085 OVC100 26/24 A3004 RMK AO2 LTG DSNT NE RAE35 P0012 T02560239
KGRD 062025Z AUTO 00000KT 8SM -RA FEW055 SCT070 OVC090 24/23 A3004 RMK AO2 LTG DSNT E P0012 T02440228
KGRD 062017Z AUTO 00000KT 2 1/2SM RA BR FEW033 BKN070 OVC090 24/23 A3004 RMK AO2 LTG DSNT E P0012 T02390233
KGRD 061959Z AUTO 17009KT 1 3/4SM +RA BR FEW033 BKN065 OVC080 24/24 A3004 RMK AO2 P0005 T02440239
KGRD 061956Z AUTO 17009KT 4SM -RA BR FEW033 BKN070 OVC080 25/24 A3004 RMK AO2 RAB1858 SLP167 P0013 T02500239
KGRD 061950Z AUTO 03004KT 3SM -RA BR FEW033 BKN065 OVC095 26/23 A3004 RMK AO2 RAB1858 P0011
KGRD 061938Z AUTO 12007KT 1 3/4SM +RA BR FEW049 BKN065 OVC090 25/23 A3004 RMK AO2 RAB1858 P0007 T02500233
KGRD 061918Z AUTO 24003KT 3SM -RA BR SCT028 BKN055 OVC085 26/24 A3004 RMK AO2 RAB1858 P0001 T02560239
KGRD 061910Z AUTO 22004KT 7SM RA BKN028 BKN060 BKN070 27/23 A3004 RMK AO2 RAB1858 P0000 T02670228
KGRD 061856Z AUTO 17003KT 10SM FEW027 FEW033 SCT044 28/23 A3004 RMK AO2 SLP165 T02780228
KGRD 061756Z AUTO 13005KT 10SM FEW021 BKN040 BKN048 28/23 A3005 RMK AO2 SLP168 60000 T02780233 10283 20228 58015
KGRD 061656Z AUTO 11005KT 10SM FEW020 BKN085 BKN110 26/23 A3008 RMK AO2 LTG DSNT N RAB26E54 SLP178 P0000 T02610233
KGRD 061622Z AUTO 14006KT 10SM FEW018 BKN034 OVC100 26/22 A3009 RMK AO2 T02610222
KGRD 061608Z AUTO 13007KT 10SM BKN018 BKN029 OVC110 26/22 A3009 RMK AO2 LTG DSNT NW T02610222
KGRD 061556Z AUTO 07003KT 10SM SCT020 BKN090 OVC110 26/23 A3009 RMK AO2 RAB46E56 SLP182 P0000 T02610228
KGRD 061456Z AUTO 10005KT 10SM BKN016 BKN035 25/22 A3009 RMK AO2 SLP184 T02500222 51010
KGRD 061436Z AUTO VRB03KT 10SM SCT014 BKN034 24/22 A3009 RMK AO2 T02440222
KGRD 061426Z AUTO 10004KT 10SM BKN013 24/22 A3009 RMK AO2 T02390217
KGRD 061405Z AUTO 11003KT 10SM FEW010 BKN015 24/22 A3009 RMK AO2 T02390222
KGRD 061356Z AUTO 10005KT 10SM BKN010 OVC015 24/22 A3009 RMK AO2 CIG 007V012 SLP181 T02390222
KGRD 061256Z AUTO 10004KT 9SM OVC006 23/22 A3007 RMK AO2 SLP177 T02280222
KGRD 061156Z AUTO 02003KT 7SM OVC007 22/22 A3006 RMK AO2 SLP173 T02170217 10217 20189 51012
KGRD 061056Z AUTO 03003KT 6SM BR BKN008 21/21 A3005 RMK AO2 SLP168 T02060206
KGRD 061052Z AUTO 03003KT 6SM BR BKN008 21/21 A3005 RMK AO2
KGRD 061036Z AUTO 02004KT 6SM BR FEW008 20/20 A3004 RMK AO2 T02000200
KGRD 060956Z AUTO 01003KT 9SM SCT013 19/19 A3003 RMK AO2 SLP161 T01890189
KGRD 060856Z AUTO 00000KT 10SM CLR 19/19 A3001 RMK AO2 SLP155 T01940194 55005
KGRD 060756Z AUTO 00000KT 10SM CLR 20/20 A3001 RMK AO2 SLP154 T02000200
KGRD 060656Z AUTO 00000KT 10SM CLR 21/20 A3002 RMK AO2 SLP157 T02060200
KGRD 060556Z AUTO 02003KT 10SM CLR 21/20 A3003 RMK AO2 SLP160 T02060200 10289 20206 50004
KGRD 060456Z AUTO 00000KT 10SM CLR 22/20 A3004 RMK AO2 SLP162 T02220200 403220200
KGRD 060356Z AUTO 00000KT 10SM CLR 23/20 A3003 RMK AO2 SLP160 T02330200
KGRD 060256Z AUTO 00000KT 10SM CLR 24/20 A3001 RMK AO2 SLP155 T02440200 53016
KGRD 060156Z AUTO 11003KT 10SM CLR 25/19 A3000 RMK AO2 SLP151 T02500194
KGRD 060056Z AUTO 13003KT 10SM CLR 26/19 A2998 RMK AO2 SLP143 T02560194